createdAt,value
2022-08-17T00:01:51.238Z,8.47
2022-08-17T00:04:19.888Z,9.87
2022-08-17T00:06:49.044Z,9.20
2022-08-17T00:09:18.505Z,9.67
2022-08-17T00:12:41.694Z,9.90
2022-08-17T00:14:33.644Z,10.33
2022-08-17T00:17:00.524Z,9.60
2022-08-17T00:19:27.884Z,10.23
2022-08-17T00:22:34.704Z,10.47
2022-08-17T00:24:46.378Z,11.13
2022-08-17T00:27:13.158Z,11.40
2022-08-17T00:29:39.957Z,11.27
2022-08-17T00:33:14.350Z,11.33
2022-08-17T00:34:53.753Z,10.13
2022-08-17T00:37:20.513Z,11.63
2022-08-17T00:39:47.396Z,11.30
2022-08-17T00:42:19.029Z,11.87
2022-08-17T00:44:45.874Z,9.93
2022-08-17T00:47:12.684Z,10.77
2022-08-17T00:49:39.556Z,11.23
2022-08-17T00:52:15.607Z,10.83
2022-08-17T00:54:45.486Z,9.87
2022-08-17T00:57:30.023Z,10.93
2022-08-17T01:00:03.015Z,11.63
2022-08-17T01:02:34.978Z,10.83
2022-08-17T01:05:14.700Z,11.13
2022-08-17T01:07:42.790Z,12.37
2022-08-17T01:10:59.139Z,12.47
2022-08-17T01:12:59.932Z,12.03
2022-08-17T01:15:27.169Z,11.67
2022-08-17T01:17:54.083Z,12.03
2022-08-17T01:20:20.959Z,12.13
2022-08-17T01:22:47.815Z,11.87
2022-08-17T01:25:15.381Z,10.80
2022-08-17T01:27:43.010Z,10.93
2022-08-17T01:30:56.784Z,11.30
2022-08-17T01:32:59.645Z,10.40
2022-08-17T01:35:26.492Z,10.90
2022-08-17T01:37:53.328Z,11.27
2022-08-17T01:40:33.668Z,11.30
2022-08-17T01:43:05.900Z,11.57
2022-08-17T01:45:38.614Z,11.83
2022-08-17T01:48:05.769Z,11.80
2022-08-17T01:50:35.217Z,11.53
2022-08-17T01:53:15.505Z,12.10
2022-08-17T01:56:07.843Z,11.93
2022-08-17T01:58:35.412Z,11.50
2022-08-17T02:01:03.512Z,13.23
2022-08-17T02:03:31.946Z,12.70
2022-08-17T02:05:59.280Z,12.50
2022-08-17T02:08:38.934Z,14.23
2022-08-17T02:11:16.925Z,13.77
2022-08-17T02:13:45.661Z,14.00
2022-08-17T02:16:13.048Z,13.33
2022-08-17T02:18:40.475Z,14.43
2022-08-17T02:21:07.900Z,14.97
2022-08-17T02:23:41.595Z,14.53
2022-08-17T02:26:08.543Z,14.80
2022-08-17T02:28:51.038Z,14.30
2022-08-17T02:31:18.362Z,13.40
2022-08-17T02:33:45.137Z,14.60
2022-08-17T02:36:27.338Z,13.77
2022-08-17T02:38:54.329Z,13.93
2022-08-17T02:41:21.109Z,14.27
2022-08-17T02:43:48.061Z,14.07
2022-08-17T02:46:14.823Z,14.43
2022-08-17T02:48:41.828Z,14.77
2022-08-17T02:51:09.148Z,15.30
2022-08-17T02:53:36.317Z,14.93
2022-08-17T02:56:03.459Z,14.13
2022-08-17T02:58:34.670Z,13.53
2022-08-17T03:01:04.927Z,13.97
2022-08-17T03:03:32.113Z,14.63
2022-08-17T03:05:58.893Z,14.60
2022-08-17T03:08:25.913Z,14.37
2022-08-17T03:10:53.250Z,14.90
2022-08-17T03:13:20.796Z,14.90
2022-08-17T03:15:48.724Z,16.17
2022-08-17T03:18:25.111Z,14.87
2022-08-17T03:20:55.200Z,15.77
2022-08-17T03:23:23.725Z,15.17
2022-08-17T03:25:53.288Z,16.17
2022-08-17T03:28:21.574Z,16.80
2022-08-17T03:30:48.390Z,17.20
2022-08-17T03:33:16.238Z,17.07
2022-08-17T03:35:43.373Z,17.20
2022-08-17T03:38:11.855Z,17.83
2022-08-17T03:40:58.504Z,17.37
2022-08-17T03:43:31.716Z,19.67
2022-08-17T03:46:28.528Z,17.93
2022-08-17T03:49:21.871Z,19.20
2022-08-17T03:52:07.343Z,17.77
2022-08-17T03:54:52.612Z,16.87
2022-08-17T03:57:21.113Z,16.73
2022-08-17T03:59:48.063Z,16.23
2022-08-17T04:02:24.313Z,15.87
2022-08-17T04:04:52.253Z,16.43
2022-08-17T04:07:20.929Z,16.97
2022-08-17T04:09:48.266Z,17.40
2022-08-17T04:12:17.615Z,17.33
2022-08-17T04:14:53.347Z,18.07
2022-08-17T04:17:25.149Z,18.30
2022-08-17T04:19:53.208Z,19.00
2022-08-17T04:22:32.896Z,18.50
2022-08-17T04:25:18.173Z,18.70
2022-08-17T04:27:44.987Z,19.00
2022-08-17T04:30:13.205Z,17.73
2022-08-17T04:33:07.214Z,18.10
2022-08-17T04:35:51.355Z,16.77
2022-08-17T04:38:21.067Z,16.20
2022-08-17T04:41:07.229Z,15.97
2022-08-17T04:43:34.718Z,16.10
2022-08-17T04:46:04.734Z,15.97
2022-08-17T04:48:37.065Z,16.33
2022-08-17T04:51:10.538Z,15.83
2022-08-17T04:53:40.066Z,16.60
2022-08-17T04:56:07.993Z,16.57
2022-08-17T04:58:48.485Z,16.33
2022-08-17T05:01:23.709Z,16.57
2022-08-17T05:03:53.429Z,16.87
2022-08-17T05:06:20.519Z,15.70
2022-08-17T05:08:48.045Z,17.60
2022-08-17T05:11:16.106Z,16.67
2022-08-17T05:13:43.921Z,16.40
2022-08-17T05:16:11.777Z,17.70
2022-08-17T05:18:39.126Z,16.17
2022-08-17T05:21:08.192Z,15.90
2022-08-17T05:23:43.124Z,16.07
2022-08-17T05:26:24.758Z,15.33
2022-08-17T05:29:00.475Z,15.77
2022-08-17T05:31:31.123Z,14.70
2022-08-17T05:33:58.568Z,15.37
2022-08-17T05:36:43.021Z,16.23
2022-08-17T05:39:16.507Z,16.03
2022-08-17T05:41:47.741Z,15.23
2022-08-17T05:44:15.159Z,16.17
2022-08-17T05:46:48.042Z,16.50
2022-08-17T05:49:17.961Z,15.87
2022-08-17T05:52:20.135Z,15.47
2022-08-17T05:55:11.780Z,15.53
2022-08-17T05:58:06.570Z,15.50
2022-08-17T06:01:11.552Z,15.67
2022-08-17T06:04:01.488Z,15.27
2022-08-17T06:06:58.086Z,15.37
2022-08-17T06:10:12.392Z,14.80
2022-08-17T06:13:09.770Z,15.67
2022-08-17T06:16:01.848Z,13.47
2022-08-17T06:18:39.153Z,13.43
2022-08-17T06:21:08.465Z,13.93
2022-08-17T06:23:43.303Z,13.53
2022-08-17T06:26:42.933Z,13.52
2022-08-17T06:29:33.488Z,12.68
2022-08-17T06:32:03.573Z,12.63
2022-08-17T06:34:31.507Z,12.87
2022-08-17T06:37:26.628Z,13.52
2022-08-17T06:40:21.793Z,13.27
2022-08-17T06:43:14.775Z,12.88
2022-08-17T06:45:54.251Z,14.35
2022-08-17T06:48:24.452Z,12.02
2022-08-17T06:51:00.131Z,13.23
2022-08-17T06:53:53.452Z,12.93
2022-08-17T06:56:53.919Z,13.05
2022-08-17T06:59:53.200Z,13.82
2022-08-17T07:03:02.278Z,13.63
2022-08-17T07:05:40.629Z,12.05
2022-08-17T07:08:38.094Z,13.43
2022-08-17T07:11:16.045Z,11.52
2022-08-17T07:14:03.295Z,11.07
2022-08-17T07:16:41.463Z,11.13
2022-08-17T07:19:10.922Z,11.23
2022-08-17T07:21:56.134Z,11.70
2022-08-17T07:24:39.407Z,11.43
2022-08-17T07:27:24.913Z,10.23
2022-08-17T07:29:56.995Z,15.77
2022-08-17T07:32:39.841Z,9.70
2022-08-17T07:35:19.891Z,8.93
2022-08-17T07:38:07.154Z,8.93
2022-08-17T07:41:01.918Z,9.60
2022-08-17T07:43:40.911Z,19.58
2022-08-17T07:46:35.204Z,9.15
2022-08-17T07:49:07.913Z,8.38
2022-08-17T07:51:51.005Z,8.25
2022-08-17T07:54:24.972Z,7.47
2022-08-17T07:56:54.228Z,7.20
2022-08-17T07:59:33.373Z,7.55
2022-08-17T08:02:17.740Z,7.00
2022-08-17T08:05:00.904Z,8.90
2022-08-17T08:07:34.822Z,7.45
2022-08-17T08:10:09.309Z,7.32
2022-08-17T08:12:42.429Z,6.78
2022-08-17T08:15:18.933Z,7.10
2022-08-17T08:17:55.745Z,6.47
2022-08-17T08:20:51.533Z,8.00
2022-08-17T08:23:44.788Z,6.15
2022-08-17T08:26:32.520Z,6.95
2022-08-17T08:29:05.163Z,6.20
2022-08-17T08:31:58.763Z,6.50
2022-08-17T08:35:02.926Z,5.90
2022-08-17T08:37:44.802Z,6.28
2022-08-17T08:40:42.901Z,5.32
2022-08-17T08:43:50.859Z,6.93
2022-08-17T08:46:35.389Z,5.72
2022-08-17T08:50:01.349Z,5.85
2022-08-17T08:53:06.430Z,6.15
2022-08-17T08:55:51.873Z,5.53
2022-08-17T08:58:41.647Z,5.60
2022-08-17T09:01:22.740Z,5.40
2022-08-17T09:04:25.557Z,5.75
2022-08-17T09:07:16.383Z,5.82
2022-08-17T09:09:59.379Z,4.93
2022-08-17T09:13:10.800Z,5.45
2022-08-17T09:15:45.352Z,5.20
2022-08-17T09:19:00.954Z,4.68
2022-08-17T09:21:45.778Z,4.60
2022-08-17T09:24:29.247Z,4.68
2022-08-17T09:27:48.044Z,4.53
2022-08-17T09:30:15.407Z,4.90
2022-08-17T09:32:49.922Z,4.93
2022-08-17T09:35:25.254Z,4.65
2022-08-17T09:38:22.218Z,4.80
2022-08-17T09:41:04.301Z,4.40
2022-08-17T09:43:53.626Z,4.43
2022-08-17T09:46:31.143Z,4.50
2022-08-17T09:49:09.735Z,4.32
2022-08-17T09:51:41.495Z,4.97
2022-08-17T09:54:39.124Z,4.22
2022-08-17T09:57:32.738Z,4.50
2022-08-17T10:00:11.085Z,4.32
2022-08-17T10:03:21.110Z,4.72
2022-08-17T10:05:56.513Z,3.88
2022-08-17T10:08:44.957Z,5.85
2022-08-17T10:11:51.957Z,4.70
2022-08-17T10:14:36.277Z,4.70
2022-08-17T10:17:23.087Z,5.03
2022-08-17T10:19:58.577Z,5.30
2022-08-17T10:22:58.611Z,4.20
2022-08-17T10:26:00.295Z,4.70
2022-08-17T10:28:32.534Z,4.88
2022-08-17T10:34:04.360Z,4.57
2022-08-17T10:36:58.919Z,4.97
2022-08-17T10:39:52.139Z,4.97
2022-08-17T10:42:34.797Z,4.28
2022-08-17T10:45:14.914Z,4.60
2022-08-17T10:48:08.323Z,4.90
2022-08-17T10:50:57.563Z,4.90
2022-08-17T10:53:33.139Z,4.38
2022-08-17T10:56:11.846Z,4.30
2022-08-17T10:58:45.684Z,4.80
2022-08-17T11:01:12.954Z,4.68
2022-08-17T11:03:58.261Z,4.30
2022-08-17T11:06:37.248Z,4.47
2022-08-17T11:09:19.930Z,4.65
2022-08-17T11:12:11.582Z,6.18
2022-08-17T11:15:10.979Z,4.70
2022-08-17T11:17:57.455Z,4.85
2022-08-17T11:20:24.351Z,4.35
2022-08-17T11:23:20.253Z,4.30
2022-08-17T11:26:01.880Z,4.50
2022-08-17T11:28:59.041Z,5.10
2022-08-17T11:31:40.452Z,3.85
2022-08-17T11:34:26.641Z,4.45
2022-08-17T11:37:26.025Z,4.55
2022-08-17T11:40:15.868Z,4.20
2022-08-17T11:42:53.345Z,4.43
2022-08-17T11:45:41.387Z,4.53
2022-08-17T11:48:49.846Z,5.50
2022-08-17T11:51:33.959Z,4.70
2022-08-17T11:57:26.897Z,4.90
2022-08-17T12:00:13.199Z,4.13
2022-08-17T12:02:47.783Z,4.95
2022-08-17T12:05:17.949Z,4.80
2022-08-17T12:08:04.035Z,4.80
2022-08-17T12:10:35.468Z,4.70
2022-08-17T12:13:14.238Z,4.72
2022-08-17T12:15:50.382Z,4.60
2022-08-17T12:18:33.663Z,8.50
2022-08-17T12:21:33.215Z,10.68
2022-08-17T12:24:24.488Z,10.10
2022-08-17T12:26:58.366Z,8.52
2022-08-17T12:29:38.500Z,9.10
2022-08-17T12:32:13.799Z,10.00
2022-08-17T12:34:42.608Z,9.85
2022-08-17T12:37:22.076Z,10.35
2022-08-17T12:39:59.448Z,11.00
2022-08-17T12:42:31.663Z,9.32
2022-08-17T12:44:58.998Z,10.45
2022-08-17T12:47:29.487Z,9.90
2022-08-17T12:50:28.984Z,9.93
2022-08-17T12:53:01.653Z,9.02
2022-08-17T12:55:35.208Z,8.77
2022-08-17T12:58:02.485Z,8.00
2022-08-17T13:00:33.191Z,7.38
2022-08-17T13:03:13.139Z,6.43
2022-08-17T13:05:42.913Z,6.85
2022-08-17T13:08:23.377Z,6.22
2022-08-17T13:10:59.641Z,6.25
2022-08-17T13:13:35.303Z,6.38
2022-08-17T13:16:05.809Z,6.90
2022-08-17T13:18:38.828Z,6.63
2022-08-17T13:21:11.343Z,6.28
2022-08-17T13:23:38.261Z,6.35
2022-08-17T13:26:15.712Z,5.90
2022-08-17T13:28:51.733Z,6.05
2022-08-17T13:31:32.919Z,5.57
2022-08-17T13:34:13.691Z,6.70
2022-08-17T13:36:41.607Z,7.03
2022-08-17T13:39:18.827Z,6.72
2022-08-17T13:41:47.025Z,6.05
2022-08-17T13:44:34.275Z,5.47
2022-08-17T13:47:02.843Z,5.72
2022-08-17T13:49:42.062Z,5.50
2022-08-17T13:52:48.813Z,4.97
2022-08-17T13:55:27.704Z,5.15
2022-08-17T13:58:04.110Z,4.80
2022-08-17T14:00:36.707Z,5.13
2022-08-17T14:03:05.020Z,5.22
2022-08-17T14:05:32.390Z,8.15
2022-08-17T14:08:02.525Z,3.95
2022-08-17T14:10:37.051Z,5.25
2022-08-17T14:13:12.599Z,4.38
2022-08-17T14:15:54.003Z,4.75
2022-08-17T14:18:42.023Z,4.00
2022-08-17T14:21:11.325Z,4.22
2022-08-17T14:23:38.629Z,4.38
2022-08-17T14:26:05.559Z,4.13
2022-08-17T14:28:32.350Z,4.47
2022-08-17T14:31:00.827Z,4.30
2022-08-17T14:33:29.161Z,4.68
2022-08-17T14:35:57.575Z,4.07
2022-08-17T14:38:24.836Z,4.10
2022-08-17T14:40:52.124Z,6.10
2022-08-17T14:43:20.485Z,5.63
2022-08-17T14:45:47.496Z,4.35
2022-08-17T14:48:14.295Z,4.15
2022-08-17T14:50:42.484Z,4.32
2022-08-17T14:53:11.565Z,4.80
2022-08-17T14:55:40.499Z,5.05
2022-08-17T14:58:08.987Z,4.63
2022-08-17T15:00:36.289Z,4.30
2022-08-17T15:03:03.513Z,4.88
2022-08-17T15:05:33.888Z,4.57
2022-08-17T15:08:02.324Z,4.28
2022-08-17T15:10:30.633Z,5.45
2022-08-17T15:12:58.250Z,4.57
2022-08-17T15:15:25.103Z,4.60
2022-08-17T15:17:51.910Z,4.88
2022-08-17T15:20:22.072Z,4.90
2022-08-17T15:22:59.039Z,4.80
2022-08-17T15:25:28.928Z,4.93
2022-08-17T15:27:56.043Z,4.53
2022-08-17T15:30:24.078Z,4.38
2022-08-17T15:32:55.282Z,4.10
2022-08-17T15:35:28.005Z,4.45
2022-08-17T15:37:57.509Z,4.72
2022-08-17T15:40:25.126Z,6.78
2022-08-17T15:42:52.035Z,8.57
2022-08-17T15:45:24.917Z,11.18
2022-08-17T15:47:52.822Z,11.90
2022-08-17T15:50:22.694Z,12.25
2022-08-17T15:52:56.062Z,10.82
2022-08-17T15:55:24.248Z,12.43
2022-08-17T15:57:52.148Z,13.27
2022-08-17T16:00:19.375Z,13.32
2022-08-17T16:03:14.042Z,14.50
2022-08-17T16:05:35.225Z,15.95
2022-08-17T16:08:02.055Z,16.33
2022-08-17T16:10:34.542Z,16.30
2022-08-17T16:13:03.904Z,17.00
2022-08-17T16:15:31.719Z,17.33
2022-08-17T16:17:58.709Z,15.95
2022-08-17T16:20:25.938Z,16.60
2022-08-17T16:22:54.236Z,17.77
2022-08-17T16:25:50.406Z,17.80
2022-08-17T16:28:16.540Z,19.63
2022-08-17T16:30:44.037Z,19.02
2022-08-17T16:33:11.908Z,19.27
2022-08-17T16:35:39.329Z,17.70
2022-08-17T16:38:07.249Z,17.20
2022-08-17T16:40:35.986Z,16.92
2022-08-17T16:43:03.881Z,16.15
2022-08-17T16:45:36.348Z,16.10
2022-08-17T16:48:03.779Z,17.80
2022-08-17T16:50:31.886Z,18.63
2022-08-17T16:53:17.409Z,17.15
2022-08-17T16:55:45.992Z,16.98
2022-08-17T16:58:13.121Z,17.67
2022-08-17T17:00:42.191Z,19.20
2022-08-17T17:03:19.645Z,19.83
2022-08-17T17:05:57.738Z,21.00
2022-08-17T17:08:30.427Z,22.08
2022-08-17T17:11:03.804Z,20.50
2022-08-17T17:13:39.482Z,22.15
2022-08-17T17:16:26.556Z,23.17
2022-08-17T17:19:10.480Z,24.50
2022-08-17T17:22:00.256Z,22.52
2022-08-17T17:24:47.041Z,23.52
2022-08-17T17:27:23.864Z,23.10
2022-08-17T17:30:09.856Z,22.10
2022-08-17T17:33:00.377Z,24.40
2022-08-17T17:35:34.598Z,24.42
2022-08-17T17:38:10.986Z,23.95
2022-08-17T17:40:50.204Z,24.67
2022-08-17T17:43:40.518Z,22.60
2022-08-17T17:46:27.797Z,23.70
2022-08-17T17:48:58.067Z,24.13
2022-08-17T17:51:58.176Z,23.08
2022-08-17T17:54:38.287Z,21.77
2022-08-17T17:57:28.772Z,22.70
2022-08-17T18:00:15.222Z,24.95
2022-08-17T18:02:52.237Z,23.25
2022-08-17T18:05:50.096Z,24.10
2022-08-17T18:08:31.981Z,23.50
2022-08-17T18:11:04.761Z,23.33
2022-08-17T18:13:43.361Z,22.58
2022-08-17T18:16:14.195Z,24.38
2022-08-17T18:18:44.712Z,24.27
2022-08-17T18:21:21.364Z,22.25
2022-08-17T18:23:57.966Z,24.58
2022-08-17T18:26:39.329Z,23.48
2022-08-17T18:29:55.085Z,24.05
2022-08-17T18:32:42.030Z,24.15
2022-08-17T18:35:08.745Z,23.02
2022-08-17T18:37:40.760Z,24.98
2022-08-17T18:40:16.928Z,22.98
2022-08-17T18:43:11.761Z,22.23
2022-08-17T18:45:46.494Z,22.30
2022-08-17T18:48:48.799Z,23.40
2022-08-17T18:51:41.820Z,24.50
2022-08-17T18:54:22.436Z,23.80
2022-08-17T18:56:50.412Z,22.10
2022-08-17T18:59:33.788Z,23.50
2022-08-17T19:02:22.377Z,23.70
2022-08-17T19:05:11.101Z,21.60
2022-08-17T19:07:47.949Z,22.42
2022-08-17T19:10:47.012Z,22.08
2022-08-17T19:13:31.388Z,22.23
2022-08-17T19:16:15.137Z,21.17
2022-08-17T19:18:59.982Z,23.35
2022-08-17T19:21:41.656Z,20.80
2022-08-17T19:24:11.805Z,21.42
2022-08-17T19:26:54.309Z,22.20
2022-08-17T19:29:32.180Z,21.35
2022-08-17T19:32:01.277Z,20.45
2022-08-17T19:34:34.073Z,21.52
2022-08-17T19:37:20.708Z,20.10
2022-08-17T19:40:08.428Z,20.40
2022-08-17T19:43:05.471Z,20.92
2022-08-17T19:45:39.743Z,20.55
2022-08-17T19:48:13.863Z,20.95
2022-08-17T19:51:04.470Z,23.50
2022-08-17T19:54:03.777Z,23.20
2022-08-17T19:56:47.570Z,22.60
2022-08-17T19:59:46.332Z,21.52
2022-08-17T20:02:22.231Z,21.55
2022-08-17T20:04:52.546Z,21.77
2022-08-17T20:07:25.737Z,22.70
2022-08-17T20:10:02.581Z,23.00
2022-08-17T20:12:51.828Z,22.65
2022-08-17T20:15:29.590Z,22.77
2022-08-17T20:17:59.913Z,21.52
2022-08-17T20:20:58.480Z,21.75
2022-08-17T20:23:36.315Z,21.45
2022-08-17T20:26:19.436Z,23.25
2022-08-17T20:29:14.459Z,22.50
2022-08-17T20:31:50.575Z,22.85
2022-08-17T20:34:33.634Z,24.08
2022-08-17T20:37:24.783Z,23.30
2022-08-17T20:39:52.709Z,23.30
2022-08-17T20:42:22.682Z,22.23
2022-08-17T20:44:52.923Z,23.00
2022-08-17T20:48:15.107Z,23.13
2022-08-17T20:50:43.969Z,22.80
2022-08-17T20:53:13.566Z,22.02
2022-08-17T20:55:51.409Z,24.05
2022-08-17T20:58:30.104Z,23.42
2022-08-17T21:00:58.798Z,24.00
2022-08-17T21:03:43.143Z,23.65
2022-08-17T21:06:19.493Z,24.08
2022-08-17T21:08:58.907Z,23.73
2022-08-17T21:11:58.213Z,24.50
2022-08-17T21:14:33.186Z,24.67
2022-08-17T21:17:12.117Z,26.48
2022-08-17T21:20:17.644Z,26.17
2022-08-17T21:23:15.977Z,27.00
2022-08-17T21:26:02.375Z,26.43
2022-08-17T21:29:00.793Z,29.03
2022-08-17T21:31:35.993Z,27.02
2022-08-17T21:34:24.467Z,30.73
2022-08-17T21:36:53.257Z,29.27
2022-08-17T21:39:40.059Z,29.88
2022-08-17T21:42:07.419Z,29.88
2022-08-17T21:44:42.030Z,28.73
2022-08-17T21:47:26.524Z,30.13
2022-08-17T21:49:56.916Z,30.52
2022-08-17T21:52:28.980Z,30.77
2022-08-17T21:55:02.450Z,30.73
2022-08-17T21:57:41.785Z,29.13
2022-08-17T22:00:30.258Z,30.55
2022-08-17T22:03:02.570Z,28.93
2022-08-17T22:05:36.317Z,30.67
2022-08-17T22:08:22.445Z,32.03
2022-08-17T22:10:59.212Z,31.50
2022-08-17T22:13:29.751Z,30.50
2022-08-17T22:16:27.940Z,32.40
2022-08-17T22:18:57.994Z,32.97
2022-08-17T22:21:25.793Z,33.77
2022-08-17T22:24:05.696Z,31.93
2022-08-17T22:27:00.127Z,33.07
2022-08-17T22:29:47.856Z,32.65
2022-08-17T22:32:43.586Z,32.67
2022-08-17T22:35:29.343Z,34.92
2022-08-17T22:37:57.380Z,34.03
2022-08-17T22:40:42.449Z,33.77
2022-08-17T22:43:12.649Z,33.80
2022-08-17T22:45:51.425Z,34.28
2022-08-17T22:48:27.267Z,35.60
2022-08-17T22:51:12.717Z,35.78
2022-08-17T22:54:33.670Z,36.53
2022-08-17T22:57:21.913Z,37.13
2022-08-17T22:59:54.750Z,38.23
2022-08-17T23:02:23.833Z,36.40
2022-08-17T23:05:18.780Z,38.73
2022-08-17T23:07:47.256Z,37.47
2022-08-17T23:10:14.385Z,35.00
2022-08-17T23:12:41.411Z,37.30
2022-08-17T23:15:15.007Z,37.43
2022-08-17T23:17:41.958Z,35.63
2022-08-17T23:20:12.485Z,36.30
2022-08-17T23:22:51.776Z,38.60
2022-08-17T23:25:33.649Z,36.30
2022-08-17T23:28:02.115Z,37.53
2022-08-17T23:30:31.487Z,36.83
2022-08-17T23:33:01.330Z,38.37
2022-08-17T23:35:40.052Z,37.90
2022-08-17T23:38:12.198Z,37.57
2022-08-17T23:40:40.089Z,37.93
2022-08-17T23:43:23.416Z,36.80
2022-08-17T23:45:55.279Z,38.13
2022-08-17T23:48:34.949Z,39.53
2022-08-17T23:51:05.891Z,38.83
2022-08-17T23:53:36.551Z,39.03
2022-08-17T23:56:06.904Z,39.63
2022-08-17T23:58:42.340Z,39.93
